Accueil
METAR-TAF:

METAR-TAF

Aéroports :

Aéroport international de Dallas-Fort Worth

Dallas / Fort Worth, Texas, États-Unis

latitude: 32-53-49N, longitude: 097-01-19W, altitude: 183 m

Observation

Le bulletin a été fait il y a 32 minutes, à 14:53 UTC
Vent 11 kt de sud/sud-ouest
Température 29°C
Humidité 66%
Pression 1017 hPa
Visibilité: 16.1 km
Nuages fragmentés à une hauteur de 30000 ft

METAR: KDFW 161453Z 20011KT 10SM BKN300 29/22 A3003 RMK AO2 SLP159 T02940217 51012

Heure: 10:25 (15:25 UTC)

Prévision

Le bulletin a été fait il y a 33 minutes, à 14:52 UTC
Prévision valable du 16 à 15 UTC au 17 à 18 UTC
Vent 12 kt de sud
Visibilité: 10 km
Quelques nuages à une hauteur de 5000 ft
Nuages fragmentés à une hauteur de 30000 ft

TAF: KDFW 161452Z 1615/1718 19012KT P6SM FEW050 BKN300

Observations et prévisions météorologiques de plus de 4000 aéroports (messages METAR et TAF).

Les stations disponibles sont représentées par des disques jaunes et rouges sur la carte.

Passer la souris dessus pour voir le nom de la station.

Cliquer dessus pour voir les observations et prévisions météorologiques.

Pour changer de carte: cliquez sur les boutons verts avec une croix noire pour zoomer, sur le bouton vert avec un tiret pour effectuer un zoom arrière, ou sur les flèches vertes pour les cartes adjacentes.


METAR-TAF: